Airfield :
LOGIN :

Register | Disclaimer

   EN    FR    IT 

 










Legend :    VFR   Marginal VFR   IFR   Intensive IFR   Very Intensive IFR
Visi :
Ceiling :
>= 8 km
>= 3000ft
5 to 8 km
1000 to 3000 ft
1500m to 5 km
500 to 1000 ft
800 to 1500m
200 to 500 ft
< 800m
< 200 ft
Symbols :   Thunderstorms  Fog  Heavy snow  Heavy precipitations  Wind > 20 kt
SIGMETs :     Misc.  Thunderstorms  Icing  Turbulence  Mountain Waves  Volcanic Ashes






- Airport Elevation : 7 ft
- IATA code : XHE


LFTH - Hyeres

CURRENT METAR :
  • 200400Z AUTO 02005KT 9999 BKN018 BKN024 OVC037 11/10 Q1012 TEMPO VRB15G25KT SHRA SCT014TCU

EXPIRED METARs :
  • 200330Z AUTO 36007KT 9999 BKN016 BKN022 BKN030 11/10 Q1012 TEMPO VRB15G25KT SHRA SCT014TCU
  • 200300Z AUTO 36006KT 9999 -DZ BKN015/// BKN032/// OVC039/// ///TCU 11/10 Q1012 TEMPO VRB15G25KT SHRA BKN030
  • 200230Z AUTO 36004KT 9999 BKN017/// BKN045/// OVC060/// ///TCU 11/09 Q1012 TEMPO VRB15G25KT SHRA BKN030
  • 200200Z AUTO 34003KT 300V030 9999 BKN018/// OVC024/// ///TCU 11/09 Q1012 BECMG BKN035
  • 200130Z AUTO 34004KT 310V020 9999 BKN018 BKN026 BKN031 11/09 Q1012

TAF TAF LFTH
Valid from the 20 at 03:00 until the 21 at 03:00 UTC


200200Z 2003/2103 35010KT 9999 BKN030
TEMPO 2004/2010 VRB15G25KT SHRA SCT014TCU
BECMG 2006/2008 24010KT
BECMG 2015/2017 18005KT
BECMG 2020/2022 32005KT
PROB30
TEMPO 2023/2103 RA



MET'MAP, your aeronautical weather chart ! - Copyright ORBIFLY December 2007 - Disclaimer

ORBIFLY MET'MAP TEAM :

Programming & Development : Alexandra Zaïnal
Concept & Development : Baudouin d'Aumeries
Co-Development & Prog : Marc-Olivier Méhu
Technical & hardware support : Manuel Goepfert

Contact : metmap@orbifly.com




SOURCES & CREDITS :

   NOAA